sensor_id;sensor_type;location;lat;lon;timestamp;P1;durP1;ratioP1;P2;durP2;ratioP2
10295;SDS011;5193;51.032;6.356;2024-03-22T00:02:01;24.53;;;13.40;;
10295;SDS011;5193;51.032;6.356;2024-03-22T00:04:27;23.67;;;12.57;;
10295;SDS011;5193;51.032;6.356;2024-03-22T00:06:53;21.40;;;13.43;;
10295;SDS011;5193;51.032;6.356;2024-03-22T00:09:19;29.00;;;13.67;;
10295;SDS011;5193;51.032;6.356;2024-03-22T00:11:47;25.80;;;14.50;;
10295;SDS011;5193;51.032;6.356;2024-03-22T00:14:16;20.87;;;13.57;;
10295;SDS011;5193;51.032;6.356;2024-03-22T00:16:41;23.53;;;13.07;;
10295;SDS011;5193;51.032;6.356;2024-03-22T00:19:08;25.07;;;13.93;;
10295;SDS011;5193;51.032;6.356;2024-03-22T00:21:34;22.03;;;12.97;;
10295;SDS011;5193;51.032;6.356;2024-03-22T00:24:00;19.43;;;12.50;;
10295;SDS011;5193;51.032;6.356;2024-03-22T00:26:28;26.30;;;12.67;;
10295;SDS011;5193;51.032;6.356;2024-03-22T00:28:57;26.37;;;14.23;;
10295;SDS011;5193;51.032;6.356;2024-03-22T00:31:23;24.00;;;13.87;;
10295;SDS011;5193;51.032;6.356;2024-03-22T00:33:51;29.33;;;13.70;;
10295;SDS011;5193;51.032;6.356;2024-03-22T00:36:16;26.63;;;13.27;;
10295;SDS011;5193;51.032;6.356;2024-03-22T00:38:42;23.43;;;13.87;;
10295;SDS011;5193;51.032;6.356;2024-03-22T00:44:29;26.43;;;13.73;;
10295;SDS011;5193;51.032;6.356;2024-03-22T00:46:55;25.13;;;13.53;;
10295;SDS011;5193;51.032;6.356;2024-03-22T00:49:20;23.50;;;12.73;;
10295;SDS011;5193;51.032;6.356;2024-03-22T00:51:46;21.30;;;12.53;;
10295;SDS011;5193;51.032;6.356;2024-03-22T00:54:15;21.97;;;14.00;;
10295;SDS011;5193;51.032;6.356;2024-03-22T00:56:41;24.53;;;13.63;;
10295;SDS011;5193;51.032;6.356;2024-03-22T00:59:06;25.90;;;13.73;;
10295;SDS011;5193;51.032;6.356;2024-03-22T01:01:33;26.73;;;13.97;;
10295;SDS011;5193;51.032;6.356;2024-03-22T01:03:59;24.37;;;14.43;;
10295;SDS011;5193;51.032;6.356;2024-03-22T01:06:30;24.70;;;13.87;;
10295;SDS011;5193;51.032;6.356;2024-03-22T01:08:56;25.10;;;13.37;;
10295;SDS011;5193;51.032;6.356;2024-03-22T01:11:21;23.43;;;13.27;;
10295;SDS011;5193;51.032;6.356;2024-03-22T01:13:49;28.87;;;14.63;;
10295;SDS011;5193;51.032;6.356;2024-03-22T01:16:15;25.97;;;13.60;;
10295;SDS011;5193;51.032;6.356;2024-03-22T01:18:43;26.20;;;14.50;;
10295;SDS011;5193;51.032;6.356;2024-03-22T01:21:08;24.00;;;13.53;;
10295;SDS011;5193;51.032;6.356;2024-03-22T01:23:34;24.17;;;13.80;;
10295;SDS011;5193;51.032;6.356;2024-03-22T01:26:00;23.03;;;13.67;;
10295;SDS011;5193;51.032;6.356;2024-03-22T01:28:28;26.77;;;14.83;;
10295;SDS011;5193;51.032;6.356;2024-03-22T01:30:54;25.57;;;14.40;;
10295;SDS011;5193;51.032;6.356;2024-03-22T01:33:22;21.63;;;13.90;;
10295;SDS011;5193;51.032;6.356;2024-03-22T01:35:51;24.30;;;13.77;;
10295;SDS011;5193;51.032;6.356;2024-03-22T01:38:16;23.27;;;13.53;;
10295;SDS011;5193;51.032;6.356;2024-03-22T01:40:42;23.33;;;13.13;;
10295;SDS011;5193;51.032;6.356;2024-03-22T01:43:08;21.33;;;13.60;;
10295;SDS011;5193;51.032;6.356;2024-03-22T01:45:33;23.83;;;14.00;;
10295;SDS011;5193;51.032;6.356;2024-03-22T01:48:02;24.97;;;14.17;;
10295;SDS011;5193;51.032;6.356;2024-03-22T01:50:28;23.30;;;14.50;;
10295;SDS011;5193;51.032;6.356;2024-03-22T01:52:54;25.07;;;13.83;;
10295;SDS011;5193;51.032;6.356;2024-03-22T01:55:20;25.87;;;14.93;;
10295;SDS011;5193;51.032;6.356;2024-03-22T01:57:46;28.90;;;14.40;;
10295;SDS011;5193;51.032;6.356;2024-03-22T02:00:13;27.00;;;14.43;;
10295;SDS011;5193;51.032;6.356;2024-03-22T02:02:39;24.80;;;14.43;;
10295;SDS011;5193;51.032;6.356;2024-03-22T02:05:14;27.63;;;15.07;;
10295;SDS011;5193;51.032;6.356;2024-03-22T02:07:46;24.60;;;14.30;;
10295;SDS011;5193;51.032;6.356;2024-03-22T02:10:12;29.07;;;14.83;;
10295;SDS011;5193;51.032;6.356;2024-03-22T02:12:38;24.90;;;14.30;;
10295;SDS011;5193;51.032;6.356;2024-03-22T02:15:04;24.50;;;14.60;;
10295;SDS011;5193;51.032;6.356;2024-03-22T02:17:32;24.13;;;14.53;;
10295;SDS011;5193;51.032;6.356;2024-03-22T02:19:58;28.27;;;14.93;;
10295;SDS011;5193;51.032;6.356;2024-03-22T02:22:25;27.40;;;14.70;;
10295;SDS011;5193;51.032;6.356;2024-03-22T02:24:51;23.40;;;13.13;;
10295;SDS011;5193;51.032;6.356;2024-03-22T02:27:17;24.80;;;14.90;;
10295;SDS011;5193;51.032;6.356;2024-03-22T02:29:46;27.10;;;14.40;;
10295;SDS011;5193;51.032;6.356;2024-03-22T02:32:11;22.00;;;14.67;;
10295;SDS011;5193;51.032;6.356;2024-03-22T02:34:37;25.90;;;14.73;;
10295;SDS011;5193;51.032;6.356;2024-03-22T02:37:06;27.03;;;15.30;;
10295;SDS011;5193;51.032;6.356;2024-03-22T02:39:32;22.77;;;14.60;;
10295;SDS011;5193;51.032;6.356;2024-03-22T02:41:57;24.67;;;14.13;;
10295;SDS011;5193;51.032;6.356;2024-03-22T02:44:26;20.60;;;13.80;;
10295;SDS011;5193;51.032;6.356;2024-03-22T02:46:51;24.27;;;14.03;;
10295;SDS011;5193;51.032;6.356;2024-03-22T02:49:20;25.27;;;15.67;;
10295;SDS011;5193;51.032;6.356;2024-03-22T02:51:49;26.03;;;15.47;;
10295;SDS011;5193;51.032;6.356;2024-03-22T02:54:15;27.60;;;16.43;;
10295;SDS011;5193;51.032;6.356;2024-03-22T02:56:47;26.53;;;16.13;;
10295;SDS011;5193;51.032;6.356;2024-03-22T02:59:13;24.10;;;15.97;;
10295;SDS011;5193;51.032;6.356;2024-03-22T03:01:39;29.33;;;16.73;;
10295;SDS011;5193;51.032;6.356;2024-03-22T03:04:05;26.80;;;16.20;;
10295;SDS011;5193;51.032;6.356;2024-03-22T03:06:30;28.73;;;17.63;;
10295;SDS011;5193;51.032;6.356;2024-03-22T03:08:56;27.57;;;17.93;;
10295;SDS011;5193;51.032;6.356;2024-03-22T03:11:25;26.53;;;16.67;;
10295;SDS011;5193;51.032;6.356;2024-03-22T03:13:50;28.30;;;17.33;;
10295;SDS011;5193;51.032;6.356;2024-03-22T03:16:16;27.30;;;16.30;;
10295;SDS011;5193;51.032;6.356;2024-03-22T03:18:42;24.77;;;15.63;;
10295;SDS011;5193;51.032;6.356;2024-03-22T03:21:07;27.73;;;16.47;;
10295;SDS011;5193;51.032;6.356;2024-03-22T03:23:33;26.77;;;16.20;;
10295;SDS011;5193;51.032;6.356;2024-03-22T03:25:59;30.63;;;17.20;;
10295;SDS011;5193;51.032;6.356;2024-03-22T03:28:24;29.33;;;16.17;;
10295;SDS011;5193;51.032;6.356;2024-03-22T03:30:51;24.57;;;14.97;;
10295;SDS011;5193;51.032;6.356;2024-03-22T03:33:16;25.70;;;15.23;;
10295;SDS011;5193;51.032;6.356;2024-03-22T03:35:45;24.57;;;15.17;;
10295;SDS011;5193;51.032;6.356;2024-03-22T03:38:15;27.40;;;15.73;;
10295;SDS011;5193;51.032;6.356;2024-03-22T03:40:41;23.60;;;13.37;;
10295;SDS011;5193;51.032;6.356;2024-03-22T03:43:07;20.70;;;12.57;;
10295;SDS011;5193;51.032;6.356;2024-03-22T03:45:35;23.67;;;14.40;;
10295;SDS011;5193;51.032;6.356;2024-03-22T03:48:02;23.83;;;14.77;;
10295;SDS011;5193;51.032;6.356;2024-03-22T03:50:28;23.57;;;14.43;;
10295;SDS011;5193;51.032;6.356;2024-03-22T03:53:02;25.47;;;14.63;;
10295;SDS011;5193;51.032;6.356;2024-03-22T03:55:28;21.63;;;14.80;;
10295;SDS011;5193;51.032;6.356;2024-03-22T03:57:54;23.77;;;15.53;;
10295;SDS011;5193;51.032;6.356;2024-03-22T04:00:20;26.23;;;14.47;;
10295;SDS011;5193;51.032;6.356;2024-03-22T04:02:46;27.33;;;15.03;;
10295;SDS011;5193;51.032;6.356;2024-03-22T04:05:14;21.93;;;13.53;;
10295;SDS011;5193;51.032;6.356;2024-03-22T04:07:40;23.93;;;14.03;;
10295;SDS011;5193;51.032;6.356;2024-03-22T04:10:07;22.70;;;14.60;;
10295;SDS011;5193;51.032;6.356;2024-03-22T04:12:36;22.63;;;13.67;;
10295;SDS011;5193;51.032;6.356;2024-03-22T04:15:01;26.57;;;13.63;;
10295;SDS011;5193;51.032;6.356;2024-03-22T04:17:27;24.37;;;13.60;;
10295;SDS011;5193;51.032;6.356;2024-03-22T04:19:53;22.67;;;13.70;;
10295;SDS011;5193;51.032;6.356;2024-03-22T04:22:19;20.73;;;13.47;;
10295;SDS011;5193;51.032;6.356;2024-03-22T04:24:44;21.73;;;12.73;;
10295;SDS011;5193;51.032;6.356;2024-03-22T04:30:33;22.27;;;13.80;;
10295;SDS011;5193;51.032;6.356;2024-03-22T04:32:59;18.43;;;12.40;;
10295;SDS011;5193;51.032;6.356;2024-03-22T04:35:25;21.20;;;13.00;;
10295;SDS011;5193;51.032;6.356;2024-03-22T04:37:51;22.07;;;12.57;;
10295;SDS011;5193;51.032;6.356;2024-03-22T04:40:17;26.47;;;13.23;;
10295;SDS011;5193;51.032;6.356;2024-03-22T04:42:43;19.13;;;12.03;;
10295;SDS011;5193;51.032;6.356;2024-03-22T04:45:10;21.30;;;13.07;;
10295;SDS011;5193;51.032;6.356;2024-03-22T04:47:36;20.07;;;12.73;;
10295;SDS011;5193;51.032;6.356;2024-03-22T04:50:02;20.57;;;12.77;;
10295;SDS011;5193;51.032;6.356;2024-03-22T04:52:28;21.03;;;12.73;;
10295;SDS011;5193;51.032;6.356;2024-03-22T04:54:56;20.50;;;13.23;;
10295;SDS011;5193;51.032;6.356;2024-03-22T04:57:22;20.50;;;13.30;;
10295;SDS011;5193;51.032;6.356;2024-03-22T04:59:47;19.57;;;12.67;;
10295;SDS011;5193;51.032;6.356;2024-03-22T05:02:17;23.50;;;13.67;;
10295;SDS011;5193;51.032;6.356;2024-03-22T05:04:44;23.50;;;14.13;;
10295;SDS011;5193;51.032;6.356;2024-03-22T05:07:11;21.83;;;13.53;;
10295;SDS011;5193;51.032;6.356;2024-03-22T05:09:41;22.17;;;13.83;;
10295;SDS011;5193;51.032;6.356;2024-03-22T05:12:09;22.17;;;13.90;;
10295;SDS011;5193;51.032;6.356;2024-03-22T05:14:35;23.93;;;13.37;;
10295;SDS011;5193;51.032;6.356;2024-03-22T05:17:00;21.27;;;13.83;;
10295;SDS011;5193;51.032;6.356;2024-03-22T05:19:26;22.33;;;12.90;;
10295;SDS011;5193;51.032;6.356;2024-03-22T05:21:51;20.30;;;13.40;;
10295;SDS011;5193;51.032;6.356;2024-03-22T05:24:17;20.27;;;13.63;;
10295;SDS011;5193;51.032;6.356;2024-03-22T05:26:49;23.47;;;14.20;;
10295;SDS011;5193;51.032;6.356;2024-03-22T05:29:14;19.17;;;13.17;;
10295;SDS011;5193;51.032;6.356;2024-03-22T05:31:47;21.07;;;14.57;;
10295;SDS011;5193;51.032;6.356;2024-03-22T05:34:18;24.80;;;14.30;;
10295;SDS011;5193;51.032;6.356;2024-03-22T05:36:44;22.03;;;14.77;;
10295;SDS011;5193;51.032;6.356;2024-03-22T05:39:11;21.43;;;15.07;;
10295;SDS011;5193;51.032;6.356;2024-03-22T05:41:39;28.53;;;15.73;;
10295;SDS011;5193;51.032;6.356;2024-03-22T05:44:05;24.60;;;13.43;;
10295;SDS011;5193;51.032;6.356;2024-03-22T05:46:31;23.90;;;14.77;;
10295;SDS011;5193;51.032;6.356;2024-03-22T05:48:57;26.10;;;14.93;;
10295;SDS011;5193;51.032;6.356;2024-03-22T05:51:24;23.10;;;14.67;;
10295;SDS011;5193;51.032;6.356;2024-03-22T05:53:53;26.53;;;15.13;;
10295;SDS011;5193;51.032;6.356;2024-03-22T05:56:22;22.80;;;14.73;;
10295;SDS011;5193;51.032;6.356;2024-03-22T05:58:48;23.90;;;15.00;;
10295;SDS011;5193;51.032;6.356;2024-03-22T06:01:16;23.83;;;16.07;;
10295;SDS011;5193;51.032;6.356;2024-03-22T06:03:42;28.50;;;15.47;;
10295;SDS011;5193;51.032;6.356;2024-03-22T06:06:08;23.20;;;15.70;;
10295;SDS011;5193;51.032;6.356;2024-03-22T06:08:38;26.40;;;16.90;;
10295;SDS011;5193;51.032;6.356;2024-03-22T06:11:10;26.27;;;15.63;;
10295;SDS011;5193;51.032;6.356;2024-03-22T06:13:36;26.00;;;15.57;;
10295;SDS011;5193;51.032;6.356;2024-03-22T06:16:02;24.67;;;16.77;;
10295;SDS011;5193;51.032;6.356;2024-03-22T06:18:28;26.87;;;13.47;;
10295;SDS011;5193;51.032;6.356;2024-03-22T06:20:54;28.27;;;16.83;;
10295;SDS011;5193;51.032;6.356;2024-03-22T06:23:22;31.27;;;16.97;;
10295;SDS011;5193;51.032;6.356;2024-03-22T06:25:54;26.53;;;16.70;;
10295;SDS011;5193;51.032;6.356;2024-03-22T06:28:21;27.50;;;17.27;;
10295;SDS011;5193;51.032;6.356;2024-03-22T06:30:48;29.30;;;18.43;;
10295;SDS011;5193;51.032;6.356;2024-03-22T06:33:14;30.90;;;17.40;;
10295;SDS011;5193;51.032;6.356;2024-03-22T06:35:41;30.63;;;17.67;;
10295;SDS011;5193;51.032;6.356;2024-03-22T06:38:07;28.40;;;18.20;;
10295;SDS011;5193;51.032;6.356;2024-03-22T06:40:34;32.70;;;18.77;;
10295;SDS011;5193;51.032;6.356;2024-03-22T06:43:01;33.17;;;19.27;;
10295;SDS011;5193;51.032;6.356;2024-03-22T06:45:28;31.43;;;19.80;;
10295;SDS011;5193;51.032;6.356;2024-03-22T06:47:57;32.53;;;18.83;;
10295;SDS011;5193;51.032;6.356;2024-03-22T06:50:22;33.00;;;19.30;;
10295;SDS011;5193;51.032;6.356;2024-03-22T06:52:51;36.60;;;19.67;;
10295;SDS011;5193;51.032;6.356;2024-03-22T06:55:18;33.40;;;20.93;;
10295;SDS011;5193;51.032;6.356;2024-03-22T06:57:45;37.20;;;20.67;;
10295;SDS011;5193;51.032;6.356;2024-03-22T07:00:12;34.43;;;20.43;;
10295;SDS011;5193;51.032;6.356;2024-03-22T07:02:41;37.90;;;20.53;;
10295;SDS011;5193;51.032;6.356;2024-03-22T07:05:08;32.13;;;19.60;;
10295;SDS011;5193;51.032;6.356;2024-03-22T07:07:35;33.40;;;19.70;;
10295;SDS011;5193;51.032;6.356;2024-03-22T07:10:02;34.03;;;21.43;;
10295;SDS011;5193;51.032;6.356;2024-03-22T07:12:32;36.53;;;21.13;;
10295;SDS011;5193;51.032;6.356;2024-03-22T07:15:01;32.27;;;20.07;;
10295;SDS011;5193;51.032;6.356;2024-03-22T07:17:27;34.97;;;20.30;;
10295;SDS011;5193;51.032;6.356;2024-03-22T07:19:55;30.67;;;19.30;;
10295;SDS011;5193;51.032;6.356;2024-03-22T07:22:23;26.10;;;13.87;;
10295;SDS011;5193;51.032;6.356;2024-03-22T07:24:50;29.67;;;19.47;;
10295;SDS011;5193;51.032;6.356;2024-03-22T07:27:16;29.83;;;17.97;;
10295;SDS011;5193;51.032;6.356;2024-03-22T07:29:43;32.07;;;18.03;;
10295;SDS011;5193;51.032;6.356;2024-03-22T07:32:11;31.23;;;17.73;;
10295;SDS011;5193;51.032;6.356;2024-03-22T07:34:37;24.93;;;15.57;;
10295;SDS011;5193;51.032;6.356;2024-03-22T07:37:02;26.83;;;16.27;;
10295;SDS011;5193;51.032;6.356;2024-03-22T07:39:29;23.87;;;15.90;;
10295;SDS011;5193;51.032;6.356;2024-03-22T07:41:55;23.80;;;16.43;;
10295;SDS011;5193;51.032;6.356;2024-03-22T07:44:24;25.40;;;14.97;;
10295;SDS011;5193;51.032;6.356;2024-03-22T07:46:52;23.30;;;14.80;;
10295;SDS011;5193;51.032;6.356;2024-03-22T07:49:17;25.70;;;15.33;;
10295;SDS011;5193;51.032;6.356;2024-03-22T07:51:44;26.70;;;14.23;;
10295;SDS011;5193;51.032;6.356;2024-03-22T07:54:09;19.83;;;14.00;;
10295;SDS011;5193;51.032;6.356;2024-03-22T07:56:35;25.50;;;14.47;;
10295;SDS011;5193;51.032;6.356;2024-03-22T07:59:07;34.07;;;14.97;;
10295;SDS011;5193;51.032;6.356;2024-03-22T08:01:33;25.13;;;14.73;;
10295;SDS011;5193;51.032;6.356;2024-03-22T08:03:58;28.23;;;15.17;;
10295;SDS011;5193;51.032;6.356;2024-03-22T08:06:24;22.97;;;13.63;;
10295;SDS011;5193;51.032;6.356;2024-03-22T08:08:50;22.30;;;12.50;;
10295;SDS011;5193;51.032;6.356;2024-03-22T08:11:15;23.53;;;14.53;;
10295;SDS011;5193;51.032;6.356;2024-03-22T08:13:41;22.77;;;13.47;;
10295;SDS011;5193;51.032;6.356;2024-03-22T08:16:07;21.20;;;12.43;;
10295;SDS011;5193;51.032;6.356;2024-03-22T08:18:32;19.93;;;12.80;;
10295;SDS011;5193;51.032;6.356;2024-03-22T08:20:58;22.43;;;13.93;;
10295;SDS011;5193;51.032;6.356;2024-03-22T08:23:24;22.27;;;14.10;;
10295;SDS011;5193;51.032;6.356;2024-03-22T08:25:50;20.30;;;13.23;;
10295;SDS011;5193;51.032;6.356;2024-03-22T08:28:19;24.00;;;13.27;;
10295;SDS011;5193;51.032;6.356;2024-03-22T08:30:46;20.47;;;12.20;;
10295;SDS011;5193;51.032;6.356;2024-03-22T08:33:25;21.47;;;12.97;;
10295;SDS011;5193;51.032;6.356;2024-03-22T08:36:10;19.00;;;13.17;;
10295;SDS011;5193;51.032;6.356;2024-03-22T08:38:36;23.17;;;12.63;;
10295;SDS011;5193;51.032;6.356;2024-03-22T08:41:01;17.60;;;12.50;;
10295;SDS011;5193;51.032;6.356;2024-03-22T08:43:28;18.80;;;10.77;;
10295;SDS011;5193;51.032;6.356;2024-03-22T08:45:54;21.43;;;12.47;;
10295;SDS011;5193;51.032;6.356;2024-03-22T08:48:24;18.53;;;12.37;;
10295;SDS011;5193;51.032;6.356;2024-03-22T08:50:57;21.10;;;12.93;;
10295;SDS011;5193;51.032;6.356;2024-03-22T08:53:24;22.27;;;11.73;;
10295;SDS011;5193;51.032;6.356;2024-03-22T08:55:50;25.13;;;13.40;;
10295;SDS011;5193;51.032;6.356;2024-03-22T08:58:15;22.47;;;12.57;;
10295;SDS011;5193;51.032;6.356;2024-03-22T09:00:43;15.37;;;11.63;;
10295;SDS011;5193;51.032;6.356;2024-03-22T09:03:09;22.43;;;12.80;;
10295;SDS011;5193;51.032;6.356;2024-03-22T09:05:35;20.17;;;13.30;;
10295;SDS011;5193;51.032;6.356;2024-03-22T09:08:02;16.40;;;10.83;;
10295;SDS011;5193;51.032;6.356;2024-03-22T09:10:29;20.83;;;12.03;;
10295;SDS011;5193;51.032;6.356;2024-03-22T09:12:54;16.13;;;11.60;;
10295;SDS011;5193;51.032;6.356;2024-03-22T09:15:21;21.03;;;12.83;;
10295;SDS011;5193;51.032;6.356;2024-03-22T09:17:46;20.30;;;12.30;;
10295;SDS011;5193;51.032;6.356;2024-03-22T09:20:15;18.73;;;11.40;;
10295;SDS011;5193;51.032;6.356;2024-03-22T09:22:40;15.70;;;12.33;;
10295;SDS011;5193;51.032;6.356;2024-03-22T09:25:06;20.90;;;14.13;;
10295;SDS011;5193;51.032;6.356;2024-03-22T09:27:32;20.47;;;12.53;;
10295;SDS011;5193;51.032;6.356;2024-03-22T09:33:08;19.13;;;13.00;;
10295;SDS011;5193;51.032;6.356;2024-03-22T09:35:34;18.80;;;12.27;;
10295;SDS011;5193;51.032;6.356;2024-03-22T09:38:01;19.17;;;13.33;;
10295;SDS011;5193;51.032;6.356;2024-03-22T09:40:27;18.87;;;12.53;;
10295;SDS011;5193;51.032;6.356;2024-03-22T09:42:54;21.43;;;13.87;;
10295;SDS011;5193;51.032;6.356;2024-03-22T09:45:30;20.50;;;13.67;;
10295;SDS011;5193;51.032;6.356;2024-03-22T09:47:56;23.77;;;14.50;;
10295;SDS011;5193;51.032;6.356;2024-03-22T09:50:23;22.87;;;13.93;;
10295;SDS011;5193;51.032;6.356;2024-03-22T09:52:48;21.63;;;12.30;;
10295;SDS011;5193;51.032;6.356;2024-03-22T09:55:18;21.30;;;13.30;;
10295;SDS011;5193;51.032;6.356;2024-03-22T09:57:49;21.23;;;13.27;;
10295;SDS011;5193;51.032;6.356;2024-03-22T10:00:19;24.17;;;12.93;;
10295;SDS011;5193;51.032;6.356;2024-03-22T10:02:51;22.37;;;13.27;;
10295;SDS011;5193;51.032;6.356;2024-03-22T10:05:18;21.77;;;14.03;;
10295;SDS011;5193;51.032;6.356;2024-03-22T10:07:44;21.50;;;13.17;;
10295;SDS011;5193;51.032;6.356;2024-03-22T10:10:12;17.83;;;13.13;;
10295;SDS011;5193;51.032;6.356;2024-03-22T10:12:46;18.63;;;13.17;;
10295;SDS011;5193;51.032;6.356;2024-03-22T10:15:12;19.70;;;12.87;;
10295;SDS011;5193;51.032;6.356;2024-03-22T10:17:39;20.17;;;12.87;;
10295;SDS011;5193;51.032;6.356;2024-03-22T10:20:06;16.70;;;12.47;;
10295;SDS011;5193;51.032;6.356;2024-03-22T10:25:26;20.00;;;13.60;;
10295;SDS011;5193;51.032;6.356;2024-03-22T10:27:53;22.40;;;13.70;;
10295;SDS011;5193;51.032;6.356;2024-03-22T10:30:19;18.33;;;13.40;;
10295;SDS011;5193;51.032;6.356;2024-03-22T10:32:46;18.87;;;12.63;;
10295;SDS011;5193;51.032;6.356;2024-03-22T10:35:13;18.93;;;12.13;;
10295;SDS011;5193;51.032;6.356;2024-03-22T10:38:04;15.90;;;12.30;;
10295;SDS011;5193;51.032;6.356;2024-03-22T10:40:33;19.77;;;12.60;;
10295;SDS011;5193;51.032;6.356;2024-03-22T10:43:00;21.97;;;12.67;;
10295;SDS011;5193;51.032;6.356;2024-03-22T10:45:35;19.27;;;12.53;;
10295;SDS011;5193;51.032;6.356;2024-03-22T10:48:03;20.50;;;13.57;;
10295;SDS011;5193;51.032;6.356;2024-03-22T10:50:35;20.57;;;13.23;;
10295;SDS011;5193;51.032;6.356;2024-03-22T10:53:06;20.30;;;13.53;;
10295;SDS011;5193;51.032;6.356;2024-03-22T10:55:34;16.53;;;12.50;;
10295;SDS011;5193;51.032;6.356;2024-03-22T11:00:42;19.27;;;14.47;;
10295;SDS011;5193;51.032;6.356;2024-03-22T11:03:08;18.33;;;14.17;;
10295;SDS011;5193;51.032;6.356;2024-03-22T11:05:34;24.23;;;14.87;;
10295;SDS011;5193;51.032;6.356;2024-03-22T11:11:11;22.87;;;15.13;;
10295;SDS011;5193;51.032;6.356;2024-03-22T11:13:38;21.40;;;15.57;;
10295;SDS011;5193;51.032;6.356;2024-03-22T11:16:05;22.97;;;14.33;;
10295;SDS011;5193;51.032;6.356;2024-03-22T11:18:30;23.03;;;16.30;;
10295;SDS011;5193;51.032;6.356;2024-03-22T11:20:59;24.03;;;15.57;;
10295;SDS011;5193;51.032;6.356;2024-03-22T11:23:25;18.83;;;14.97;;
10295;SDS011;5193;51.032;6.356;2024-03-22T11:25:50;16.83;;;12.97;;
10295;SDS011;5193;51.032;6.356;2024-03-22T11:28:16;20.70;;;14.60;;
10295;SDS011;5193;51.032;6.356;2024-03-22T11:30:43;18.60;;;14.73;;
10295;SDS011;5193;51.032;6.356;2024-03-22T11:33:10;18.97;;;14.43;;
10295;SDS011;5193;51.032;6.356;2024-03-22T11:35:38;19.50;;;14.03;;
10295;SDS011;5193;51.032;6.356;2024-03-22T11:38:04;19.53;;;13.73;;
10295;SDS011;5193;51.032;6.356;2024-03-22T11:40:30;21.33;;;13.57;;
10295;SDS011;5193;51.032;6.356;2024-03-22T11:42:58;21.17;;;13.90;;
10295;SDS011;5193;51.032;6.356;2024-03-22T11:45:27;18.80;;;14.03;;
10295;SDS011;5193;51.032;6.356;2024-03-22T11:47:53;20.43;;;13.67;;
10295;SDS011;5193;51.032;6.356;2024-03-22T11:50:22;16.70;;;12.50;;
10295;SDS011;5193;51.032;6.356;2024-03-22T11:52:47;16.43;;;12.30;;
10295;SDS011;5193;51.032;6.356;2024-03-22T11:55:13;19.53;;;13.13;;
10295;SDS011;5193;51.032;6.356;2024-03-22T11:57:40;16.20;;;12.37;;
10295;SDS011;5193;51.032;6.356;2024-03-22T12:00:06;14.20;;;11.37;;
10295;SDS011;5193;51.032;6.356;2024-03-22T12:02:43;17.83;;;10.93;;
10295;SDS011;5193;51.032;6.356;2024-03-22T12:05:11;15.13;;;10.00;;
10295;SDS011;5193;51.032;6.356;2024-03-22T12:07:37;13.53;;;9.67;;
10295;SDS011;5193;51.032;6.356;2024-03-22T12:10:02;14.50;;;10.40;;
10295;SDS011;5193;51.032;6.356;2024-03-22T12:12:29;13.47;;;11.00;;
10295;SDS011;5193;51.032;6.356;2024-03-22T12:14:55;14.93;;;10.17;;
10295;SDS011;5193;51.032;6.356;2024-03-22T12:17:26;17.93;;;11.03;;
10295;SDS011;5193;51.032;6.356;2024-03-22T12:19:52;15.33;;;11.40;;
10295;SDS011;5193;51.032;6.356;2024-03-22T12:22:18;18.33;;;12.50;;
10295;SDS011;5193;51.032;6.356;2024-03-22T12:24:47;16.40;;;10.83;;
10295;SDS011;5193;51.032;6.356;2024-03-22T12:27:13;13.30;;;10.50;;
10295;SDS011;5193;51.032;6.356;2024-03-22T12:29:42;16.43;;;10.87;;
10295;SDS011;5193;51.032;6.356;2024-03-22T12:32:09;15.13;;;10.23;;
10295;SDS011;5193;51.032;6.356;2024-03-22T12:34:35;18.83;;;9.93;;
10295;SDS011;5193;51.032;6.356;2024-03-22T12:37:04;18.00;;;11.10;;
10295;SDS011;5193;51.032;6.356;2024-03-22T12:39:29;15.90;;;11.10;;
10295;SDS011;5193;51.032;6.356;2024-03-22T12:41:57;19.67;;;10.83;;
10295;SDS011;5193;51.032;6.356;2024-03-22T12:44:26;16.73;;;10.60;;
10295;SDS011;5193;51.032;6.356;2024-03-22T12:46:51;16.33;;;10.40;;
10295;SDS011;5193;51.032;6.356;2024-03-22T12:49:19;13.93;;;10.77;;
10295;SDS011;5193;51.032;6.356;2024-03-22T12:51:46;14.63;;;10.10;;
10295;SDS011;5193;51.032;6.356;2024-03-22T12:54:13;13.87;;;10.37;;
10295;SDS011;5193;51.032;6.356;2024-03-22T12:56:40;16.73;;;10.93;;
10295;SDS011;5193;51.032;6.356;2024-03-22T12:59:08;16.40;;;10.47;;
10295;SDS011;5193;51.032;6.356;2024-03-22T13:01:34;14.47;;;10.47;;
10295;SDS011;5193;51.032;6.356;2024-03-22T13:04:01;13.37;;;10.57;;
10295;SDS011;5193;51.032;6.356;2024-03-22T13:06:27;16.97;;;10.77;;
10295;SDS011;5193;51.032;6.356;2024-03-22T13:08:52;14.00;;;10.30;;
10295;SDS011;5193;51.032;6.356;2024-03-22T13:11:32;14.43;;;10.63;;
10295;SDS011;5193;51.032;6.356;2024-03-22T13:13:57;19.97;;;10.37;;
10295;SDS011;5193;51.032;6.356;2024-03-22T13:16:24;14.60;;;9.63;;
10295;SDS011;5193;51.032;6.356;2024-03-22T13:18:50;15.50;;;10.87;;
10295;SDS011;5193;51.032;6.356;2024-03-22T13:21:15;13.87;;;10.63;;
10295;SDS011;5193;51.032;6.356;2024-03-22T13:23:41;15.13;;;9.80;;
10295;SDS011;5193;51.032;6.356;2024-03-22T13:26:06;11.63;;;9.47;;
10295;SDS011;5193;51.032;6.356;2024-03-22T13:28:35;14.77;;;9.93;;
10295;SDS011;5193;51.032;6.356;2024-03-22T13:31:03;17.07;;;11.53;;
10295;SDS011;5193;51.032;6.356;2024-03-22T13:33:31;14.07;;;10.27;;
10295;SDS011;5193;51.032;6.356;2024-03-22T13:35:58;15.13;;;10.50;;
10295;SDS011;5193;51.032;6.356;2024-03-22T13:38:24;14.93;;;10.77;;
10295;SDS011;5193;51.032;6.356;2024-03-22T13:40:56;14.57;;;10.03;;
10295;SDS011;5193;51.032;6.356;2024-03-22T13:43:22;15.10;;;10.87;;
10295;SDS011;5193;51.032;6.356;2024-03-22T13:45:50;15.07;;;10.30;;
10295;SDS011;5193;51.032;6.356;2024-03-22T13:48:20;14.30;;;10.00;;
10295;SDS011;5193;51.032;6.356;2024-03-22T13:53:38;15.63;;;10.33;;
10295;SDS011;5193;51.032;6.356;2024-03-22T13:56:05;16.37;;;11.37;;
10295;SDS011;5193;51.032;6.356;2024-03-22T13:58:31;16.00;;;9.73;;
10295;SDS011;5193;51.032;6.356;2024-03-22T14:00:57;13.33;;;9.50;;
10295;SDS011;5193;51.032;6.356;2024-03-22T14:03:22;19.43;;;9.97;;
10295;SDS011;5193;51.032;6.356;2024-03-22T14:05:48;17.03;;;9.60;;
10295;SDS011;5193;51.032;6.356;2024-03-22T14:08:14;13.73;;;9.77;;
10295;SDS011;5193;51.032;6.356;2024-03-22T14:10:41;14.00;;;9.53;;
10295;SDS011;5193;51.032;6.356;2024-03-22T14:13:10;13.53;;;9.50;;
10295;SDS011;5193;51.032;6.356;2024-03-22T14:15:35;13.93;;;9.90;;
10295;SDS011;5193;51.032;6.356;2024-03-22T14:18:02;12.60;;;9.83;;
10295;SDS011;5193;51.032;6.356;2024-03-22T14:20:28;13.97;;;9.53;;
10295;SDS011;5193;51.032;6.356;2024-03-22T14:22:55;12.33;;;9.27;;
10295;SDS011;5193;51.032;6.356;2024-03-22T14:25:21;14.73;;;10.07;;
10295;SDS011;5193;51.032;6.356;2024-03-22T14:27:51;14.17;;;9.77;;
10295;SDS011;5193;51.032;6.356;2024-03-22T14:30:17;14.43;;;9.27;;
10295;SDS011;5193;51.032;6.356;2024-03-22T14:32:46;12.03;;;9.33;;
10295;SDS011;5193;51.032;6.356;2024-03-22T14:35:12;13.43;;;10.10;;
10295;SDS011;5193;51.032;6.356;2024-03-22T14:37:38;12.00;;;9.70;;
10295;SDS011;5193;51.032;6.356;2024-03-22T14:40:05;11.80;;;9.50;;
10295;SDS011;5193;51.032;6.356;2024-03-22T14:42:35;13.57;;;10.23;;
10295;SDS011;5193;51.032;6.356;2024-03-22T14:45:02;12.67;;;9.33;;
10295;SDS011;5193;51.032;6.356;2024-03-22T14:47:28;14.67;;;9.87;;
10295;SDS011;5193;51.032;6.356;2024-03-22T14:49:54;13.20;;;9.90;;
10295;SDS011;5193;51.032;6.356;2024-03-22T14:52:20;13.63;;;10.20;;
10295;SDS011;5193;51.032;6.356;2024-03-22T14:54:48;14.53;;;10.03;;
10295;SDS011;5193;51.032;6.356;2024-03-22T14:57:18;17.23;;;9.97;;